Time;durP1;ratioP1;P1;durP2;ratioP2;P2;SDS_P1;SDS_P2;PMS_P1;PMS_P2;Temp;Humidity;BMP_temperature;BMP_pressure;BME280_temperature;BME280_humidity;BME280_pressure;Samples;Min_cycle;Max_cycle;Signal;HPM_P1;HPM_P2
2022/04/14 00:01:09;;;;;;;8.63;5.50;;;13.50;99.90;;;;;;5062367;28;20475;-81
2022/04/14 00:03:36;;;;;;;8.80;7.13;;;13.50;99.90;;;;;;5068385;28;20459;-80
2022/04/14 00:06:02;;;;;;;9.00;6.10;;;13.50;99.90;;;;;;5069338;28;20512;-80
2022/04/14 00:08:29;;;;;;;5.60;5.20;;;13.40;99.90;;;;;;5058687;28;20464;-82
2022/04/14 00:10:56;;;;;;;6.30;5.70;;;13.40;99.90;;;;;;5049411;28;20493;-80
2022/04/14 00:13:24;;;;;;;5.63;5.10;;;13.30;99.90;;;;;;5057639;28;20459;-80
2022/04/14 00:15:51;;;;;;;10.47;5.47;;;13.20;99.90;;;;;;5068648;28;20456;-80
2022/04/14 00:18:18;;;;;;;7.07;6.47;;;13.10;99.90;;;;;;5060978;28;20453;-80
2022/04/14 00:20:44;;;;;;;8.73;5.70;;;13.10;99.90;;;;;;5049019;28;20461;-80
2022/04/14 00:23:11;;;;;;;6.17;5.57;;;13.10;99.90;;;;;;5055618;28;20451;-80
2022/04/14 00:25:38;;;;;;;7.07;6.40;;;12.90;99.90;;;;;;5065822;28;20455;-80
2022/04/14 00:28:05;;;;;;;6.67;5.53;;;12.80;99.90;;;;;;5048500;28;20449;-80
2022/04/14 00:30:33;;;;;;;5.60;5.07;;;12.70;99.90;;;;;;5051531;28;20496;-80
2022/04/14 00:32:59;;;;;;;5.67;5.17;;;12.70;99.90;;;;;;5071055;28;20523;-81
2022/04/14 00:35:26;;;;;;;6.50;4.60;;;12.80;99.90;;;;;;5062658;28;20452;-80
2022/04/14 00:37:53;;;;;;;6.40;5.90;;;12.90;99.90;;;;;;5042695;28;20448;-80
2022/04/14 00:40:20;;;;;;;9.90;4.97;;;12.90;99.90;;;;;;5041623;28;20465;-81
2022/04/14 00:42:46;;;;;;;6.27;5.30;;;12.90;99.90;;;;;;5059920;28;20447;-81
2022/04/14 00:45:14;;;;;;;5.60;5.10;;;12.90;99.90;;;;;;5050140;28;20460;-81
2022/04/14 00:47:42;;;;;;;6.33;5.90;;;12.90;99.90;;;;;;5041246;28;20460;-81
2022/04/14 00:50:09;;;;;;;6.13;5.63;;;12.80;99.90;;;;;;5049936;28;20488;-81
2022/04/14 00:52:43;;;;;;;7.07;5.10;;;12.70;99.90;;;;;;5055528;28;20476;-80
2022/04/14 00:55:10;;;;;;;8.57;6.10;;;12.70;99.90;;;;;;5042926;28;20458;-79
2022/04/14 00:57:36;;;;;;;7.63;5.10;;;12.70;99.90;;;;;;5053185;28;20448;-80
2022/04/14 01:00:04;;;;;;;5.40;4.90;;;12.60;99.90;;;;;;5068624;28;20467;-81
2022/04/14 01:02:31;;;;;;;6.03;5.43;;;12.60;99.90;;;;;;5064364;28;20453;-81
2022/04/14 01:05:00;;;;;;;6.17;5.60;;;12.60;99.90;;;;;;5048498;28;20424;-81
2022/04/14 01:07:28;;;;;;;6.37;5.73;;;12.60;99.90;;;;;;5050859;28;20483;-80
2022/04/14 01:09:56;;;;;;;5.40;4.90;;;12.60;99.90;;;;;;5067951;28;20507;-80
2022/04/14 01:12:24;;;;;;;6.60;5.30;;;12.60;99.90;;;;;;5066170;28;20432;-80
2022/04/14 01:14:51;;;;;;;5.93;5.43;;;12.50;99.90;;;;;;5048463;28;20448;-80
2022/04/14 01:17:18;;;;;;;6.23;5.63;;;12.40;99.90;;;;;;5064785;28;20451;-79
2022/04/14 01:19:44;;;;;;;5.73;5.13;;;12.30;99.90;;;;;;5068318;28;20478;-80
2022/04/14 01:22:19;;;;;;;8.17;7.33;;;12.30;99.90;;;;;;5052334;28;20452;-80
2022/04/14 01:24:48;;;;;;;6.57;5.57;;;12.20;99.90;;;;;;5047947;28;20466;-80
2022/04/14 01:27:14;;;;;;;7.47;6.83;;;12.30;99.90;;;;;;5063754;28;20459;-80
2022/04/14 01:29:41;;;;;;;6.33;5.83;;;12.20;99.90;;;;;;5057941;28;20559;-81
2022/04/14 01:32:09;;;;;;;7.67;5.40;;;12.10;99.90;;;;;;5047938;28;20449;-80
2022/04/14 01:34:36;;;;;;;6.57;5.90;;;12.00;99.90;;;;;;5047789;28;20455;-80
2022/04/14 01:37:02;;;;;;;5.80;5.30;;;12.00;99.90;;;;;;5049807;28;20458;-81
2022/04/14 01:39:30;;;;;;;11.43;5.47;;;12.10;99.90;;;;;;5067015;28;20503;-81
2022/04/14 01:41:58;;;;;;;7.53;6.83;;;12.20;99.90;;;;;;5067621;28;20446;-80
2022/04/14 01:44:25;;;;;;;7.13;5.80;;;12.30;99.90;;;;;;5068119;28;20482;-80
2022/04/14 01:46:51;;;;;;;7.70;5.17;;;12.20;99.90;;;;;;5067297;28;20451;-80
2022/04/14 01:49:18;;;;;;;5.90;5.30;;;12.20;99.90;;;;;;5065837;28;20455;-80
2022/04/14 01:51:48;;;;;;;7.37;6.27;;;12.30;99.90;;;;;;5067400;28;20483;-81
2022/04/14 01:54:15;;;;;;;5.53;4.17;;;12.40;99.90;;;;;;5068256;28;20477;-80
2022/04/14 01:56:42;;;;;;;5.97;4.07;;;12.40;99.90;;;;;;5049802;28;20456;-80
2022/04/14 01:59:11;;;;;;;4.43;4.03;;;12.40;99.90;;;;;;5048033;28;20440;-80
2022/04/14 02:01:38;;;;;;;5.30;4.90;;;12.20;99.90;;;;;;5064725;28;20452;-81
2022/04/14 02:04:07;;;;;;;6.10;4.60;;;12.10;99.90;;;;;;5055454;28;20514;-80
2022/04/14 02:06:34;;;;;;;6.30;5.20;;;12.20;99.90;;;;;;5048218;28;20452;-80
2022/04/14 02:09:00;;;;;;;5.60;5.13;;;12.20;99.90;;;;;;5059195;28;20516;-80
2022/04/14 02:11:27;;;;;;;4.90;4.43;;;12.20;99.90;;;;;;5067513;28;20502;-80
2022/04/14 02:13:54;;;;;;;7.50;6.80;;;12.30;99.90;;;;;;5057562;28;20463;-80
2022/04/14 02:16:22;;;;;;;6.00;5.40;;;12.30;99.90;;;;;;5047394;28;20453;-80
2022/04/14 02:18:49;;;;;;;9.67;5.20;;;12.40;99.90;;;;;;5056570;28;20465;-80
2022/04/14 02:21:15;;;;;;;7.70;4.60;;;12.30;99.90;;;;;;5065013;28;20467;-80
2022/04/14 02:23:42;;;;;;;6.60;4.67;;;12.40;99.90;;;;;;5047635;28;20474;-80
2022/04/14 02:26:09;;;;;;;6.83;5.67;;;12.40;99.90;;;;;;5065447;28;20519;-80
2022/04/14 02:28:36;;;;;;;5.10;4.70;;;12.40;99.90;;;;;;5057032;28;20458;-80
2022/04/14 02:31:02;;;;;;;6.70;5.10;;;12.50;99.90;;;;;;5047589;28;20491;-80
2022/04/14 02:33:30;;;;;;;5.17;4.30;;;12.60;99.90;;;;;;5057214;28;20452;-82
2022/04/14 02:35:57;;;;;;;5.60;4.93;;;12.70;99.90;;;;;;5067854;28;20454;-80
2022/04/14 02:38:24;;;;;;;5.03;4.63;;;12.70;99.90;;;;;;5054835;28;20441;-79
2022/04/14 02:40:51;;;;;;;7.87;7.17;;;12.70;99.90;;;;;;5051039;28;20461;-80
2022/04/14 02:43:18;;;;;;;5.83;4.63;;;12.60;99.90;;;;;;5066590;28;20448;-80
2022/04/14 02:45:45;;;;;;;10.03;6.20;;;12.70;99.90;;;;;;5071379;28;20443;-79
2022/04/14 02:48:11;;;;;;;4.93;4.50;;;12.70;99.90;;;;;;5057568;28;20648;-81
2022/04/14 02:50:43;;;;;;;8.20;5.57;;;12.70;99.90;;;;;;5059594;28;20486;-81
2022/04/14 02:53:10;;;;;;;7.13;6.30;;;12.80;99.90;;;;;;5065898;28;20460;-81
2022/04/14 02:55:36;;;;;;;7.93;7.23;;;12.70;99.90;;;;;;5050985;28;20539;-81
2022/04/14 02:58:03;;;;;;;7.07;6.47;;;12.60;99.90;;;;;;5055758;28;20444;-81
2022/04/14 03:00:30;;;;;;;6.77;5.97;;;12.60;99.90;;;;;;5070583;28;20464;-81
2022/04/14 03:02:57;;;;;;;10.83;6.50;;;12.50;99.90;;;;;;5068286;28;20908;-81
2022/04/14 03:05:24;;;;;;;6.73;5.53;;;12.50;99.90;;;;;;5050927;28;20445;-81
2022/04/14 03:07:52;;;;;;;8.23;6.90;;;12.50;99.90;;;;;;5052226;28;20448;-80
2022/04/14 03:10:18;;;;;;;6.60;6.00;;;12.60;99.90;;;;;;5070304;28;20471;-81
2022/04/14 03:12:47;;;;;;;7.07;6.40;;;12.50;99.90;;;;;;5065567;28;20479;-81
2022/04/14 03:15:14;;;;;;;7.97;7.27;;;12.60;99.90;;;;;;5051233;28;20448;-81
2022/04/14 03:17:41;;;;;;;8.87;8.07;;;12.50;99.90;;;;;;5031775;28;20448;-80
2022/04/14 03:20:09;;;;;;;9.20;8.30;;;12.50;99.90;;;;;;5030568;28;20470;-79
2022/04/14 03:22:36;;;;;;;10.70;8.40;;;12.30;99.90;;;;;;5069003;28;20455;-80
2022/04/14 03:25:07;;;;;;;15.33;10.13;;;12.20;99.90;;;;;;5069810;28;20460;-80
2022/04/14 03:27:34;;;;;;;9.50;8.70;;;12.10;99.90;;;;;;5051659;28;20458;-80
2022/04/14 03:30:01;;;;;;;10.00;9.03;;;12.00;99.90;;;;;;5050430;28;20471;-81
2022/04/14 03:32:28;;;;;;;11.03;8.93;;;12.00;99.90;;;;;;5067003;28;20490;-81
2022/04/14 03:34:54;;;;;;;11.67;10.53;;;11.90;99.90;;;;;;5060968;28;20460;-80
2022/04/14 03:37:22;;;;;;;11.23;9.10;;;12.00;99.90;;;;;;5050368;28;20463;-81
2022/04/14 03:39:49;;;;;;;15.30;13.23;;;12.00;99.90;;;;;;5058844;28;20471;-81
2022/04/14 03:42:17;;;;;;;11.70;10.00;;;12.10;99.90;;;;;;5066515;28;20519;-81
2022/04/14 03:44:44;;;;;;;13.80;9.93;;;12.00;99.90;;;;;;5050520;28;20463;-81
2022/04/14 03:47:10;;;;;;;15.77;12.17;;;12.00;99.90;;;;;;5051185;28;20610;-81
2022/04/14 03:49:37;;;;;;;14.47;12.23;;;12.00;99.90;;;;;;5065102;28;20495;-81
2022/04/14 03:52:04;;;;;;;16.10;13.13;;;11.90;99.90;;;;;;5049405;28;20491;-81
2022/04/14 03:54:31;;;;;;;16.07;12.20;;;11.90;99.90;;;;;;5050008;28;20855;-80
2022/04/14 03:56:58;;;;;;;14.10;12.57;;;11.80;99.90;;;;;;5050042;28;20535;-80
2022/04/14 03:59:26;;;;;;;16.40;14.70;;;11.90;99.90;;;;;;5029603;28;20476;-80
2022/04/14 04:01:52;;;;;;;16.93;13.30;;;11.90;99.90;;;;;;5030417;28;20468;-81
2022/04/14 04:04:19;;;;;;;19.10;14.63;;;11.90;99.90;;;;;;5068417;28;20451;-81
2022/04/14 04:06:46;;;;;;;19.00;15.57;;;12.00;99.90;;;;;;5055317;28;20457;-81
2022/04/14 04:09:13;;;;;;;15.23;12.97;;;11.80;99.90;;;;;;5050991;28;20945;-81
2022/04/14 04:11:40;;;;;;;17.03;14.30;;;11.90;99.90;;;;;;5070205;28;20495;-81
2022/04/14 04:14:07;;;;;;;17.47;14.93;;;12.00;99.90;;;;;;5069301;28;20447;-80
2022/04/14 04:16:35;;;;;;;18.93;15.77;;;11.90;99.90;;;;;;5050594;28;20455;-80
2022/04/14 04:19:02;;;;;;;22.03;17.20;;;11.90;99.90;;;;;;5065847;28;20459;-80
2022/04/14 04:39:01;;;;;;;18.47;15.83;;;12.20;99.90;;;;;;5040855;28;20451;-81
2022/04/14 05:22:03;;;;;;;12.80;10.00;;;12.10;99.90;;;;;;5024191;28;20515;-81
2022/04/14 05:31:12;;;;;;;16.67;13.47;;;12.20;99.90;;;;;;5023548;28;20485;-81
2022/04/14 05:33:39;;;;;;;15.37;13.63;;;12.30;99.90;;;;;;5064428;28;20464;-82
2022/04/14 05:36:07;;;;;;;16.43;14.50;;;12.30;99.90;;;;;;5059850;28;20494;-81
2022/04/14 05:38:34;;;;;;;17.23;15.23;;;12.40;99.90;;;;;;5050764;28;20458;-81
2022/04/14 05:41:01;;;;;;;20.20;14.73;;;12.30;99.90;;;;;;5061250;28;20498;-82
2022/04/14 05:43:30;;;;;;;17.73;14.73;;;12.30;99.90;;;;;;5042960;28;20520;-82
2022/04/14 05:45:57;;;;;;;20.50;14.33;;;12.20;99.90;;;;;;5046196;28;20455;-81
2022/04/14 05:48:24;;;;;;;17.90;15.80;;;12.20;99.90;;;;;;5061213;28;20534;-83
2022/04/14 05:50:51;;;;;;;19.33;14.40;;;12.20;99.90;;;;;;5061411;28;20464;-82
2022/04/14 05:53:20;;;;;;;21.20;17.37;;;12.30;99.90;;;;;;5050060;28;20543;-82
2022/04/14 05:55:47;;;;;;;21.53;18.57;;;12.40;99.90;;;;;;5046581;28;20459;-82
2022/04/14 05:58:16;;;;;;;21.97;16.30;;;12.50;99.90;;;;;;5044056;28;20452;-81
2022/04/14 06:00:44;;;;;;;21.43;19.40;;;12.50;99.90;;;;;;5043961;28;20483;-81
2022/04/14 06:03:11;;;;;;;20.30;18.13;;;12.50;99.90;;;;;;5044537;28;20465;-82
2022/04/14 06:05:38;;;;;;;21.30;18.47;;;12.50;99.90;;;;;;5046279;28;20445;-82
2022/04/14 06:08:06;;;;;;;20.00;17.90;;;12.50;99.90;;;;;;5044111;28;20440;-81
2022/04/14 06:10:35;;;;;;;26.47;21.73;;;12.50;99.90;;;;;;5036485;28;20461;-80
2022/04/14 06:13:01;;;;;;;28.27;23.00;;;12.60;99.90;;;;;;5044106;28;20488;-81
2022/04/14 06:15:30;;;;;;;30.37;23.10;;;12.60;99.90;;;;;;5054321;28;20456;-80
2022/04/14 06:17:58;;;;;;;30.07;25.60;;;12.70;99.90;;;;;;5042860;28;20859;-80
2022/04/14 06:20:25;;;;;;;32.50;25.67;;;12.70;99.90;;;;;;5051924;28;20480;-81
2022/04/14 06:22:52;;;;;;;28.97;26.13;;;12.70;99.90;;;;;;5039167;28;20456;-83
2022/04/14 06:25:22;;;;;;;29.90;25.93;;;12.70;99.90;;;;;;5039182;28;20487;-82
2022/04/14 06:27:50;;;;;;;28.20;24.67;;;12.70;99.90;;;;;;5040091;28;20464;-83
2022/04/14 06:30:19;;;;;;;28.30;24.10;;;12.70;99.90;;;;;;5039219;28;20989;-83
2022/04/14 06:32:56;;;;;;;32.70;24.17;;;12.80;99.90;;;;;;5039486;28;20517;-83
2022/04/14 06:35:24;;;;;;;27.77;24.67;;;12.80;99.90;;;;;;5039181;28;20455;-83
2022/04/14 06:37:51;;;;;;;32.67;28.50;;;12.90;99.90;;;;;;5039628;28;20450;-83
2022/04/14 06:40:17;;;;;;;33.63;25.87;;;12.90;99.90;;;;;;5039020;28;21024;-81
2022/04/14 06:42:44;;;;;;;27.63;24.70;;;13.00;99.90;;;;;;5039420;28;20448;-83
2022/04/14 06:45:11;;;;;;;29.03;24.90;;;13.00;99.90;;;;;;5039633;28;20460;-83
2022/04/14 06:47:37;;;;;;;28.37;23.30;;;13.10;99.90;;;;;;5039719;28;20471;-81
2022/04/14 06:50:05;;;;;;;30.70;25.83;;;13.10;99.90;;;;;;5038625;28;21009;-83
2022/04/14 06:52:33;;;;;;;28.90;23.43;;;13.20;99.90;;;;;;5039549;28;20498;-82
2022/04/14 06:55:01;;;;;;;27.60;24.20;;;13.20;99.90;;;;;;5038721;28;20452;-82
2022/04/14 06:57:27;;;;;;;28.03;24.03;;;13.30;99.90;;;;;;5037849;28;20453;-83
2022/04/14 06:59:54;;;;;;;29.23;25.03;;;13.40;99.90;;;;;;5038037;28;20472;-82
2022/04/14 07:02:21;;;;;;;25.30;22.67;;;13.40;99.90;;;;;;5037545;28;20459;-83
2022/04/14 07:04:47;;;;;;;23.60;21.00;;;13.50;99.90;;;;;;5037999;28;20939;-83
2022/04/14 07:07:14;;;;;;;24.73;22.07;;;13.40;99.90;;;;;;5036951;28;20529;-81
2022/04/14 07:09:42;;;;;;;29.00;24.60;;;13.50;99.90;;;;;;5035562;28;20479;-83
2022/04/14 07:12:10;;;;;;;26.63;23.87;;;13.60;99.90;;;;;;5034898;28;20488;-82
2022/04/14 07:14:38;;;;;;;25.67;22.90;;;13.80;99.90;;;;;;5036728;28;20488;-83
2022/04/14 07:17:05;;;;;;;26.37;23.07;;;13.80;99.90;;;;;;5036268;28;20453;-83
2022/04/14 07:19:32;;;;;;;21.53;18.67;;;13.90;99.90;;;;;;5036227;28;20473;-83
2022/04/14 07:21:59;;;;;;;25.17;21.30;;;14.00;99.90;;;;;;5036566;28;20445;-82
2022/04/14 07:24:25;;;;;;;26.43;23.17;;;14.10;99.90;;;;;;5042372;28;20464;-84
2022/04/14 07:26:54;;;;;;;26.53;22.17;;;14.10;99.90;;;;;;5042698;28;21151;-83
2022/04/14 07:29:21;;;;;;;24.47;21.77;;;14.10;99.90;;;;;;5043503;28;20449;-82
2022/04/14 07:31:49;;;;;;;26.33;21.53;;;14.20;99.90;;;;;;5043917;28;20493;-83
2022/04/14 07:34:16;;;;;;;23.40;19.60;;;14.40;99.90;;;;;;5043540;28;20485;-83
2022/04/14 07:36:42;;;;;;;20.37;18.07;;;14.50;99.90;;;;;;5043357;28;20449;-82
2022/04/14 07:39:10;;;;;;;22.20;20.00;;;14.70;99.90;;;;;;5042143;28;20461;-83
2022/04/14 07:41:36;;;;;;;20.27;18.20;;;14.90;99.90;;;;;;5042417;28;20449;-82
2022/04/14 07:44:05;;;;;;;21.20;19.10;;;15.10;99.90;;;;;;5042813;28;20449;-82
2022/04/14 07:46:35;;;;;;;23.33;18.90;;;15.30;99.90;;;;;;5043497;28;20453;-82
2022/04/14 07:49:02;;;;;;;20.97;18.70;;;15.30;99.90;;;;;;5043731;28;20481;-82
2022/04/14 07:51:29;;;;;;;21.27;18.80;;;15.30;99.90;;;;;;5043574;28;20473;-84
2022/04/14 07:53:55;;;;;;;20.50;18.50;;;15.30;99.90;;;;;;5043540;28;20441;-83
2022/04/14 07:56:22;;;;;;;24.33;19.90;;;15.30;99.90;;;;;;5043762;28;20528;-83
2022/04/14 07:58:49;;;;;;;24.10;18.77;;;15.40;99.90;;;;;;5043444;28;20448;-81
2022/04/14 08:01:18;;;;;;;19.80;17.50;;;15.30;99.90;;;;;;5043432;28;20469;-82
2022/04/14 08:03:46;;;;;;;20.60;18.30;;;15.30;99.90;;;;;;5042985;28;20469;-83
2022/04/14 08:06:14;;;;;;;21.20;18.90;;;15.40;99.90;;;;;;5043164;28;20446;-83
2022/04/14 08:08:41;;;;;;;21.17;18.60;;;15.50;99.90;;;;;;5044215;28;20447;-83
2022/04/14 08:11:10;;;;;;;20.47;18.47;;;15.60;99.90;;;;;;5043536;28;20469;-82
2022/04/14 08:13:38;;;;;;;24.50;17.83;;;15.60;99.90;;;;;;5043218;28;20555;-83
2022/04/14 08:16:06;;;;;;;21.70;18.87;;;15.60;99.90;;;;;;5043388;28;20464;-83
2022/04/14 08:18:36;;;;;;;21.40;19.07;;;15.80;99.90;;;;;;5043198;28;20450;-83
2022/04/14 08:21:03;;;;;;;19.40;17.40;;;15.90;99.90;;;;;;5042751;28;20473;-83
2022/04/14 08:23:30;;;;;;;18.77;16.83;;;16.10;99.90;;;;;;5043036;28;20454;-82
2022/04/14 08:25:57;;;;;;;18.70;16.67;;;16.30;99.90;;;;;;5043770;28;20457;-83
2022/04/14 08:28:24;;;;;;;17.80;15.97;;;16.40;99.90;;;;;;5042544;28;20964;-82
2022/04/14 08:30:52;;;;;;;19.13;17.23;;;16.40;99.90;;;;;;5042763;28;20470;-83
2022/04/14 08:33:20;;;;;;;19.10;17.20;;;16.40;99.90;;;;;;5043051;28;20535;-82
2022/04/14 08:35:49;;;;;;;18.90;16.30;;;16.50;99.90;;;;;;5041843;28;20491;-85
2022/04/14 08:38:16;;;;;;;19.20;17.20;;;16.60;99.90;;;;;;5042383;28;20450;-84
2022/04/14 08:40:45;;;;;;;17.43;15.80;;;16.80;99.90;;;;;;5042490;28;20475;-84
2022/04/14 08:43:12;;;;;;;18.50;16.23;;;16.80;99.90;;;;;;5041975;28;20451;-84
2022/04/14 08:45:46;;;;;;;27.27;17.33;;;16.80;99.90;;;;;;5042090;28;20443;-84
2022/04/14 08:48:15;;;;;;;17.87;16.03;;;16.90;99.90;;;;;;5042005;28;20493;-82
2022/04/14 08:50:42;;;;;;;21.00;18.10;;;17.20;99.90;;;;;;5042032;28;20476;-83
2022/04/14 08:53:11;;;;;;;18.70;16.90;;;17.20;99.90;;;;;;5042744;28;20494;-81
2022/04/14 08:55:42;;;;;;;22.00;17.50;;;17.20;99.90;;;;;;5041667;28;20451;-83
2022/04/14 08:58:14;;;;;;;22.70;19.60;;;17.00;99.90;;;;;;5041531;28;20882;-82
2022/04/14 09:00:41;;;;;;;19.90;17.63;;;17.10;99.90;;;;;;5041534;28;20504;-85
2022/04/14 09:03:07;;;;;;;17.20;15.40;;;17.40;99.90;;;;;;5041131;28;20448;-82
2022/04/14 09:05:34;;;;;;;18.80;16.60;;;17.60;99.90;;;;;;5041838;28;20497;-84
2022/04/14 09:08:02;;;;;;;20.23;17.30;;;17.70;99.90;;;;;;5040569;28;20482;-83
2022/04/14 09:10:30;;;;;;;18.80;16.90;;;17.80;99.90;;;;;;5040772;28;21059;-83
2022/04/14 09:12:57;;;;;;;17.30;15.83;;;17.90;99.90;;;;;;5041843;28;21007;-83
2022/04/14 09:15:24;;;;;;;19.17;15.80;;;17.90;99.90;;;;;;5041826;28;20509;-83
2022/04/14 09:17:50;;;;;;;16.67;15.03;;;17.70;99.90;;;;;;5041763;28;20957;-84
2022/04/14 09:20:41;;;;;;;16.17;14.57;;;17.70;99.90;;;;;;5041069;28;21029;-84
2022/04/14 09:23:18;;;;;;;18.60;16.50;;;17.70;99.90;;;;;;5039210;28;20969;-83
2022/04/14 09:25:46;;;;;;;19.40;16.80;;;17.80;99.90;;;;;;5041257;28;20521;-82
2022/04/14 09:28:15;;;;;;;18.17;16.57;;;17.80;99.90;;;;;;5041560;28;20449;-85
2022/04/14 09:30:57;;;;;;;18.20;16.30;;;17.90;99.90;;;;;;5040579;28;20478;-83
2022/04/14 09:33:23;;;;;;;16.97;15.27;;;18.10;99.90;;;;;;5041990;28;20485;-83
2022/04/14 09:36:05;;;;;;;17.77;15.97;;;18.30;99.90;;;;;;5041924;28;20452;-83
2022/04/14 09:38:56;;;;;;;18.90;17.13;;;18.50;99.90;;;;;;5042796;28;20519;-83
2022/04/14 09:41:35;;;;;;;19.77;17.67;;;18.60;99.90;;;;;;5041660;28;20476;-83
2022/04/14 09:44:04;;;;;;;18.60;16.83;;;18.60;99.90;;;;;;5041854;28;20440;-83
2022/04/14 09:46:30;;;;;;;18.37;15.53;;;18.70;99.90;;;;;;5041552;28;20449;-83
2022/04/14 09:49:08;;;;;;;18.47;16.77;;;18.90;99.90;;;;;;5041236;28;20878;-83
2022/04/14 09:51:36;;;;;;;16.83;15.33;;;18.80;99.90;;;;;;5041216;28;20490;-82
2022/04/14 09:54:15;;;;;;;18.10;16.17;;;18.90;99.90;;;;;;5041789;28;20512;-83
2022/04/14 09:56:48;;;;;;;19.47;15.90;;;18.90;99.90;;;;;;5055593;28;20783;-81
2022/04/14 09:59:17;;;;;;;17.00;15.23;;;18.90;99.90;;;;;;5040839;28;20812;-81
2022/04/14 10:01:45;;;;;;;16.50;14.70;;;19.00;99.90;;;;;;5058248;28;20455;-86
2022/04/14 10:04:41;;;;;;;18.53;16.40;;;19.00;99.90;;;;;;5053611;28;20446;-85
2022/04/14 10:07:11;;;;;;;18.83;14.60;;;19.10;99.90;;;;;;5048787;28;20841;-84
2022/04/14 10:09:43;;;;;;;18.63;15.63;;;19.40;99.90;;;;;;5059964;28;20499;-85
2022/04/14 10:12:31;;;;;;;19.10;17.30;;;19.30;99.30;;;;;;5063506;28;20459;-84
2022/04/14 10:15:09;;;;;;;15.47;14.07;;;19.50;99.20;;;;;;5045558;28;20460;-84
2022/04/14 10:17:38;;;;;;;16.07;14.33;;;19.90;99.60;;;;;;5043394;28;20457;-82
2022/04/14 10:20:07;;;;;;;15.77;14.27;;;20.20;99.40;;;;;;5065591;22;20537;-80
2022/04/14 10:22:35;;;;;;;18.73;15.67;;;20.10;97.60;;;;;;5073306;28;20476;-80
2022/04/14 10:25:02;;;;;;;16.10;14.60;;;20.10;97.60;;;;;;5080203;28;20478;-83
2022/04/14 10:27:31;;;;;;;15.63;14.07;;;20.20;98.10;;;;;;5097753;28;20479;-84
2022/04/14 10:30:00;;;;;;;16.17;14.43;;;20.60;98.40;;;;;;5098241;28;20503;-86
2022/04/14 10:32:28;;;;;;;14.63;13.20;;;20.80;96.30;;;;;;5099757;28;20477;-86
2022/04/14 10:34:57;;;;;;;13.20;12.10;;;20.60;95.40;;;;;;5094370;28;20444;-87
2022/04/14 10:37:30;;;;;;;12.87;11.03;;;20.70;95.50;;;;;;5080538;28;20522;-86
2022/04/14 10:39:57;;;;;;;13.70;12.40;;;21.00;95.20;;;;;;5072604;28;20886;-84
2022/04/14 10:42:30;;;;;;;13.37;11.80;;;21.00;94.10;;;;;;5074476;28;20436;-84
2022/04/14 10:45:02;;;;;;;13.33;12.13;;;20.90;94.20;;;;;;5095005;28;20474;-86
2022/04/14 10:47:36;;;;;;;15.63;14.13;;;20.90;94.20;;;;;;5093147;28;20463;-85
2022/04/14 10:50:04;;;;;;;17.33;12.63;;;21.10;94.60;;;;;;5091575;28;20468;-84
2022/04/14 10:52:31;;;;;;;14.13;12.63;;;21.40;94.60;;;;;;5099082;28;20445;-85
2022/04/14 10:54:59;;;;;;;11.77;10.67;;;21.60;94.10;;;;;;5101748;28;20448;-87
2022/04/14 10:57:41;;;;;;;16.07;12.70;;;21.70;92.30;;;;;;5081514;28;20980;-86
2022/04/14 11:00:37;;;;;;;11.50;10.60;;;21.60;91.90;;;;;;5096422;28;20465;-84
2022/04/14 11:03:05;;;;;;;13.17;11.50;;;21.60;91.80;;;;;;5108346;28;20503;-85
2022/04/14 11:05:43;;;;;;;16.63;14.03;;;21.90;92.00;;;;;;5106865;28;20453;-85
2022/04/14 11:12:10;;;;;;;13.37;10.13;;;22.50;90.50;;;;;;4995702;28;20531;-84
2022/04/14 11:14:43;;;;;;;12.80;11.70;;;23.00;90.30;;;;;;5011951;28;20497;-85
2022/04/14 11:17:48;;;;;;;14.37;11.67;;;23.30;88.60;;;;;;5070921;28;20946;-86
2022/04/14 11:20:16;;;;;;;13.83;11.30;;;23.40;86.60;;;;;;5080681;28;20485;-85
2022/04/14 11:23:12;;;;;;;12.10;10.90;;;23.70;86.80;;;;;;5075155;28;20442;-86
2022/04/14 11:25:47;;;;;;;13.57;12.30;;;23.80;83.00;;;;;;5070741;28;20443;-85
2022/04/14 11:28:24;;;;;;;13.10;12.00;;;23.90;84.30;;;;;;5081143;28;20466;-85
2022/04/14 11:47:11;;;;;;;16.00;14.47;;;25.00;83.20;;;;;;4984109;28;20495;-85
2022/04/14 11:50:13;;;;;;;14.77;13.40;;;25.30;81.80;;;;;;5034788;28;20453;-87
2022/04/14 11:52:50;;;;;;;14.17;12.97;;;25.10;78.30;;;;;;4991978;28;20995;-86
2022/04/14 11:55:35;;;;;;;13.80;12.53;;;25.20;79.80;;;;;;4993168;28;20484;-87
2022/04/14 11:58:22;;;;;;;14.00;12.90;;;25.70;80.40;;;;;;5018975;28;20458;-87
2022/04/14 12:01:12;;;;;;;15.63;14.27;;;25.80;78.00;;;;;;5033485;28;20772;-87
2022/04/14 12:03:42;;;;;;;16.70;14.70;;;26.10;76.90;;;;;;5035603;28;20523;-86
2022/04/14 12:06:22;;;;;;;13.10;12.00;;;26.50;76.40;;;;;;5031949;28;20459;-88
2022/04/14 12:08:59;;;;;;;13.27;11.90;;;26.60;74.20;;;;;;5025698;28;20473;-85
2022/04/14 12:11:30;;;;;;;16.20;14.50;;;26.30;72.10;;;;;;5033499;28;20501;-85
2022/04/14 12:13:57;;;;;;;14.37;12.80;;;25.40;74.20;;;;;;5028048;28;20487;-85
2022/04/14 12:16:33;;;;;;;16.83;15.27;;;25.40;75.80;;;;;;5035122;28;20485;-87
2022/04/14 12:19:05;;;;;;;17.20;14.77;;;24.40;77.40;;;;;;5040434;28;20476;-84
2022/04/14 12:21:39;;;;;;;16.80;15.30;;;24.60;79.50;;;;;;5039127;28;20715;-86
2022/04/14 12:27:34;;;;;;;16.33;15.00;;;25.10;79.80;;;;;;4979720;28;20555;-85
2022/04/14 12:30:06;;;;;;;17.60;15.53;;;25.60;77.50;;;;;;4996023;28;20475;-85
2022/04/14 12:32:34;;;;;;;16.23;14.83;;;25.40;77.10;;;;;;5038089;28;20519;-85
2022/04/14 12:35:06;;;;;;;16.43;14.93;;;25.70;78.10;;;;;;5044143;28;20487;-84
2022/04/14 12:37:37;;;;;;;14.97;13.40;;;26.00;77.20;;;;;;5037324;28;20527;-85
2022/04/14 12:40:11;;;;;;;15.33;13.93;;;26.30;75.20;;;;;;5039941;28;21016;-86
2022/04/14 12:43:01;;;;;;;16.57;15.33;;;25.80;73.10;;;;;;5042151;28;20455;-86
2022/04/14 12:45:28;;;;;;;16.73;15.03;;;25.40;75.70;;;;;;5042657;28;20456;-85
2022/04/14 12:47:56;;;;;;;15.30;13.90;;;25.40;75.00;;;;;;5043692;28;20458;-85
2022/04/14 12:50:24;;;;;;;15.87;14.50;;;25.60;75.10;;;;;;5041805;28;20492;-85
2022/04/14 12:52:56;;;;;;;17.77;16.27;;;26.00;75.50;;;;;;5042734;28;20456;-85
2022/04/14 12:55:23;;;;;;;16.77;15.47;;;26.10;75.10;;;;;;5038721;28;20452;-85
2022/04/14 12:57:50;;;;;;;17.00;15.47;;;26.60;73.90;;;;;;5041518;28;20472;-84
2022/04/14 13:00:19;;;;;;;16.63;15.13;;;26.70;72.40;;;;;;5039145;28;20511;-85
2022/04/14 13:03:02;;;;;;;17.20;14.80;;;26.60;72.70;;;;;;5048583;28;20453;-83
2022/04/14 13:05:37;;;;;;;17.37;15.37;;;26.90;72.00;;;;;;5035701;28;20479;-83
2022/04/14 13:08:04;;;;;;;14.60;13.40;;;27.20;71.30;;;;;;5048203;28;20466;-83
2022/04/14 13:10:34;;;;;;;15.47;14.03;;;27.40;70.10;;;;;;5044274;28;20462;-83
2022/04/14 13:13:03;;;;;;;16.97;15.37;;;27.50;69.70;;;;;;5030763;28;20977;-86
2022/04/14 13:15:33;;;;;;;18.67;16.93;;;27.00;70.60;;;;;;5031567;28;20452;-86
2022/04/14 13:18:02;;;;;;;18.67;16.97;;;26.40;70.40;;;;;;5038846;28;20550;-84
2022/04/14 13:20:37;;;;;;;18.30;16.53;;;25.80;73.50;;;;;;5032903;28;20479;-84
2022/04/14 13:23:08;;;;;;;16.20;14.80;;;26.60;73.00;;;;;;5034619;28;20508;-86
2022/04/14 13:25:35;;;;;;;16.53;15.03;;;25.50;72.40;;;;;;5051786;28;20450;-87
2022/04/14 13:28:02;;;;;;;17.87;16.37;;;25.60;74.70;;;;;;5050707;28;20458;-86
2022/04/14 13:30:29;;;;;;;18.43;16.90;;;25.60;75.00;;;;;;5043837;28;20481;-87
2022/04/14 13:32:56;;;;;;;18.10;16.50;;;26.10;74.20;;;;;;5033691;28;20871;-87
2022/04/14 13:35:22;;;;;;;17.43;15.80;;;25.50;72.10;;;;;;5033108;28;20487;-87
2022/04/14 13:37:51;;;;;;;17.10;15.70;;;25.60;74.60;;;;;;5032783;28;20464;-84
2022/04/14 13:40:18;;;;;;;20.37;17.60;;;25.90;74.40;;;;;;5018957;28;20473;-86
2022/04/14 13:42:45;;;;;;;18.23;16.30;;;26.30;73.50;;;;;;5013557;28;20460;-87
2022/04/14 13:45:12;;;;;;;19.03;17.10;;;25.90;73.20;;;;;;5013151;28;20828;-87
2022/04/14 13:47:40;;;;;;;19.17;17.20;;;25.70;74.80;;;;;;5012957;28;20455;-86
2022/04/14 13:50:08;;;;;;;18.07;16.47;;;25.60;74.80;;;;;;5020159;28;20478;-83
2022/04/14 13:52:35;;;;;;;19.77;17.27;;;24.70;74.50;;;;;;5028261;28;20466;-85
2022/04/14 13:55:06;;;;;;;19.80;17.90;;;24.90;77.60;;;;;;5029939;28;20488;-87
2022/04/14 14:01:18;;;;;;;17.00;15.50;;;26.00;75.80;;;;;;5039833;28;20430;-86
2022/04/14 14:55:47;;;;;;;17.90;16.10;;;26.30;69.30;;;;;;5036342;28;20526;-84
2022/04/14 15:00:58;;;;;;;16.80;15.50;;;25.50;71.00;;;;;;5038505;28;20430;-84
2022/04/14 15:03:25;;;;;;;19.43;16.73;;;24.40;73.20;;;;;;5038519;28;20532;-84
2022/04/14 15:05:51;;;;;;;16.50;14.90;;;24.20;75.50;;;;;;5039028;28;20464;-84
2022/04/14 18:24:36;;;;;;;;;;;;;;;;;;;;;
2022/04/14 18:40:54;;;;;;;5.07;4.47;;;16.30;99.90;;;;;;4897048;28;20456;-84
